Time;durP1;ratioP1;P1;durP2;ratioP2;P2;SDS_P1;SDS_P2;PMS_P1;PMS_P2;Temp;Humidity;BMP_temperature;BMP_pressure;BME280_temperature;BME280_humidity;BME280_pressure;Samples;Min_cycle;Max_cycle;Signal;HPM_P1;HPM_P2
2022/05/04 00:02:18;;;;;;;3.65;2.50;;;;;;;21.70;52.11;99498.22;4970145;29;20098;-86
2022/05/04 00:04:43;;;;;;;3.53;2.88;;;;;;;21.70;52.21;99482.28;4969812;29;20127;-86
2022/05/04 00:07:09;;;;;;;4.25;2.55;;;;;;;21.70;52.31;99489.44;4969999;29;20027;-87
2022/05/04 00:09:35;;;;;;;4.50;2.70;;;;;;;21.68;52.17;99494.78;4970628;29;20023;-86
2022/05/04 00:12:00;;;;;;;3.63;2.88;;;;;;;21.69;52.32;99491.19;4969693;29;20027;-87
2022/05/04 00:14:26;;;;;;;3.70;2.80;;;;;;;21.67;52.17;99493.09;4969434;29;20031;-87
2022/05/04 00:16:52;;;;;;;3.72;2.50;;;;;;;21.65;52.42;99484.34;4962114;29;20603;-85
2022/05/04 00:19:18;;;;;;;4.05;2.75;;;;;;;21.65;52.33;99484.34;4958434;29;20355;-84
2022/05/04 00:21:44;;;;;;;3.58;2.42;;;;;;;21.65;52.20;99492.31;4958289;28;20027;-85
2022/05/04 00:24:09;;;;;;;4.45;2.55;;;;;;;21.65;52.29;99494.97;4958175;29;20102;-83
2022/05/04 00:26:35;;;;;;;3.33;2.53;;;;;;;21.64;52.03;99485.31;4958456;29;20529;-84
2022/05/04 00:29:01;;;;;;;4.18;2.92;;;;;;;21.64;52.19;99482.66;4958369;29;20362;-85
2022/05/04 00:31:26;;;;;;;3.95;2.63;;;;;;;21.63;52.02;99486.25;4957765;29;20019;-83
2022/05/04 00:33:52;;;;;;;4.63;2.60;;;;;;;21.62;52.29;99481.91;4960044;29;20505;-84
2022/05/04 00:36:17;;;;;;;4.40;2.80;;;;;;;21.62;52.28;99486.34;4958928;29;20059;-84
2022/05/04 00:38:43;;;;;;;4.57;2.92;;;;;;;21.61;52.30;99482.88;4958980;29;20031;-85
2022/05/04 00:41:08;;;;;;;3.00;2.20;;;;;;;21.60;52.10;99470.53;4958581;29;20052;-86
2022/05/04 00:43:34;;;;;;;3.50;2.60;;;;;;;21.60;52.10;99478.50;4956703;29;20385;-85
2022/05/04 00:46:00;;;;;;;3.60;2.58;;;;;;;21.59;52.24;99479.44;4956801;29;20057;-84
2022/05/04 00:48:25;;;;;;;4.38;2.80;;;;;;;21.59;52.19;99482.94;4957838;29;20027;-85
2022/05/04 00:50:51;;;;;;;3.88;2.65;;;;;;;21.58;52.26;99472.41;4957270;29;20038;-83
2022/05/04 00:53:19;;;;;;;3.63;2.60;;;;;;;21.57;52.12;99471.59;4957109;29;20019;-84
2022/05/04 00:55:46;;;;;;;3.92;2.70;;;;;;;21.57;52.26;99471.59;4957337;29;20393;-84
2022/05/04 01:01:00;;;;;;;3.42;2.70;;;;;;;21.56;52.14;99469.84;4958961;29;20030;-84
2022/05/04 01:03:25;;;;;;;3.92;2.67;;;;;;;21.55;52.31;99472.63;4958142;28;20497;-85
2022/05/04 01:05:51;;;;;;;3.92;2.95;;;;;;;21.55;52.05;99467.31;4957209;29;20042;-85
2022/05/04 01:08:17;;;;;;;4.00;2.90;;;;;;;21.54;52.10;99465.59;4956964;29;20027;-84
2022/05/04 01:10:43;;;;;;;3.97;2.78;;;;;;;21.54;52.25;99468.25;4959909;29;20031;-83
2022/05/04 01:13:08;;;;;;;4.60;2.95;;;;;;;21.53;52.22;99469.19;4958953;29;20512;-85
2022/05/04 01:15:34;;;;;;;3.85;2.70;;;;;;;21.52;52.02;99467.50;4957943;29;20085;-84
2022/05/04 01:18:00;;;;;;;4.22;3.00;;;;;;;21.52;52.15;99472.81;4958251;29;20027;-83
2022/05/04 01:20:26;;;;;;;3.38;2.60;;;;;;;21.51;52.18;99468.47;4958209;29;20027;-83
2022/05/04 01:22:51;;;;;;;5.30;2.85;;;;;;;21.50;52.02;99472.91;4957534;29;20469;-84
2022/05/04 01:25:17;;;;;;;4.13;2.80;;;;;;;21.49;51.91;99473.84;4957979;29;20362;-84
2022/05/04 01:27:43;;;;;;;4.80;3.08;;;;;;;21.48;52.25;99472.16;4958176;29;20134;-85
2022/05/04 01:30:09;;;;;;;3.83;2.33;;;;;;;21.47;51.91;99467.81;4959172;29;20029;-86
2022/05/04 01:32:34;;;;;;;3.85;2.70;;;;;;;21.46;52.26;99477.56;4957751;29;20117;-83
2022/05/04 01:35:00;;;;;;;3.78;2.70;;;;;;;21.45;52.12;99469.69;4957878;28;20420;-84
2022/05/04 01:37:25;;;;;;;3.55;2.58;;;;;;;21.45;52.16;99485.59;4958294;29;20027;-84
2022/05/04 01:39:51;;;;;;;3.67;2.70;;;;;;;21.44;52.17;99474.16;4958806;29;20361;-85
2022/05/04 01:42:17;;;;;;;4.40;2.85;;;;;;;21.43;52.12;99480.41;4957872;29;20477;-84
2022/05/04 01:44:45;;;;;;;3.45;2.67;;;;;;;21.43;52.27;99479.56;4959828;29;20062;-84
2022/05/04 01:47:12;;;;;;;4.25;2.72;;;;;;;21.41;51.76;99484.94;4959578;29;20031;-85
2022/05/04 01:49:39;;;;;;;4.38;2.70;;;;;;;21.40;52.15;99474.44;4959864;29;20038;-85
2022/05/04 01:52:05;;;;;;;3.63;2.55;;;;;;;21.40;52.11;99477.09;4960510;29;20461;-85
2022/05/04 01:54:31;;;;;;;4.63;2.70;;;;;;;21.39;52.07;99478.91;4960132;29;20117;-86
2022/05/04 01:56:57;;;;;;;4.18;3.08;;;;;;;21.38;52.12;99474.53;4960088;29;20517;-85
2022/05/04 01:59:22;;;;;;;3.58;2.85;;;;;;;21.39;52.03;99484.22;4960128;29;20038;-87
2022/05/04 02:01:48;;;;;;;3.90;2.60;;;;;;;21.38;52.23;99487.81;4960872;29;20031;-85
2022/05/04 02:04:15;;;;;;;4.63;3.10;;;;;;;21.37;52.00;99478.16;4960818;29;20035;-84
2022/05/04 02:06:41;;;;;;;3.65;2.50;;;;;;;21.36;51.93;99479.06;4960287;29;20458;-85
2022/05/04 02:09:06;;;;;;;3.70;2.50;;;;;;;21.36;52.22;99495.00;4959779;29;20031;-86
2022/05/04 02:11:33;;;;;;;3.40;2.50;;;;;;;21.33;52.00;99485.47;4958247;29;20453;-86
2022/05/04 02:14:03;;;;;;;3.45;2.45;;;;;;;21.36;52.06;99500.31;4955643;29;20520;-85
2022/05/04 02:16:28;;;;;;;3.85;2.47;;;;;;;21.33;52.06;99500.50;4955434;29;20041;-85
2022/05/04 02:18:54;;;;;;;3.60;2.63;;;;;;;21.34;51.88;99496.91;4958035;29;20435;-86
2022/05/04 02:21:20;;;;;;;3.72;2.90;;;;;;;21.31;52.30;99497.13;4963268;29;20078;-88
2022/05/04 02:23:46;;;;;;;3.17;2.40;;;;;;;21.31;52.24;99497.13;4965203;29;20035;-87
2022/05/04 02:26:11;;;;;;;3.58;2.70;;;;;;;21.30;52.03;99495.38;4965886;29;20047;-87
2022/05/04 02:28:37;;;;;;;2.95;2.35;;;;;;;21.30;52.04;99495.38;4965518;29;20038;-87
2022/05/04 02:31:03;;;;;;;3.63;2.80;;;;;;;21.29;51.97;99499.00;4964935;29;20035;-86
2022/05/04 02:33:28;;;;;;;3.83;2.35;;;;;;;21.29;51.97;99501.63;4968765;29;20027;-86
2022/05/04 02:38:52;;;;;;;3.95;2.58;;;;;;;21.26;52.13;99494.72;4956744;29;20036;-88
2022/05/04 02:41:17;;;;;;;4.10;2.80;;;;;;;21.27;51.91;99501.75;4964984;29;20019;-88
2022/05/04 02:43:43;;;;;;;4.97;2.97;;;;;;;21.26;51.99;99500.03;4960201;29;20386;-86
2022/05/04 02:46:19;;;;;;;3.47;2.40;;;;;;;21.25;51.99;99494.84;4958553;28;20031;-86
2022/05/04 02:48:46;;;;;;;3.33;2.50;;;;;;;21.24;52.20;99488.66;4961323;29;20508;-87
2022/05/04 02:51:12;;;;;;;3.67;2.67;;;;;;;21.21;52.04;99486.19;4959760;29;20057;-85
2022/05/04 02:53:37;;;;;;;3.95;2.53;;;;;;;21.21;52.10;99490.66;4960367;29;20023;-84
2022/05/04 02:56:05;;;;;;;3.80;2.80;;;;;;;21.21;52.18;99482.69;4962854;29;20376;-85
2022/05/04 02:58:31;;;;;;;3.75;2.35;;;;;;;21.21;52.01;99488.00;4960938;29;20027;-84
2022/05/04 03:04:02;;;;;;;3.33;2.38;;;;;;;21.19;52.18;99486.31;4962271;29;20041;-84
2022/05/04 03:06:29;;;;;;;3.72;2.55;;;;;;;21.18;52.10;99484.59;4961024;29;20039;-85
2022/05/04 03:08:54;;;;;;;2.75;2.30;;;;;;;21.19;52.12;99494.25;4961076;29;20065;-84
2022/05/04 03:14:07;;;;;;;4.10;2.88;;;;;;;21.17;52.30;99488.19;4962261;29;20037;-83
2022/05/04 03:16:33;;;;;;;3.30;2.40;;;;;;;21.17;52.14;99485.53;4962547;29;20050;-84
2022/05/04 03:18:59;;;;;;;3.25;2.38;;;;;;;21.14;52.05;99480.44;4960602;29;20118;-84
2022/05/04 03:21:25;;;;;;;3.92;2.70;;;;;;;21.14;52.19;99490.16;4961000;29;20051;-84
2022/05/04 03:23:50;;;;;;;3.95;2.45;;;;;;;21.13;52.03;99481.38;4961146;29;20078;-85
2022/05/04 03:26:16;;;;;;;3.40;2.85;;;;;;;21.14;52.27;99477.78;4959743;29;20111;-85
2022/05/04 03:28:41;;;;;;;3.65;2.63;;;;;;;21.13;52.04;99484.03;4959801;29;20027;-84
2022/05/04 03:31:07;;;;;;;3.90;2.70;;;;;;;21.11;52.16;99477.94;4962020;29;20038;-84
2022/05/04 03:33:32;;;;;;;5.05;2.45;;;;;;;21.12;52.18;99484.13;4961003;29;20031;-85
2022/05/04 03:35:58;;;;;;;3.30;2.67;;;;;;;21.11;52.16;99482.41;4960574;29;20424;-86
2022/05/04 03:38:24;;;;;;;3.30;2.45;;;;;;;21.11;52.09;99480.59;4960261;29;20031;-84
2022/05/04 03:40:50;;;;;;;3.92;2.35;;;;;;;21.11;52.19;99485.06;4958733;29;20031;-85
2022/05/04 03:43:15;;;;;;;4.05;2.80;;;;;;;21.10;52.26;99488.69;4959169;29;20370;-85
2022/05/04 03:45:41;;;;;;;3.88;2.63;;;;;;;21.08;52.47;99496.72;4958533;29;20057;-85
2022/05/04 03:48:07;;;;;;;4.13;2.90;;;;;;;21.08;52.12;99493.19;4958830;29;20042;-87
2022/05/04 03:50:32;;;;;;;3.78;2.72;;;;;;;21.07;52.31;99495.03;4959760;29;20171;-85
2022/05/04 03:52:58;;;;;;;3.85;2.97;;;;;;;21.06;52.34;99493.28;4959633;29;20038;-85
2022/05/04 03:55:23;;;;;;;3.85;3.05;;;;;;;21.06;52.21;99482.69;4958693;29;20038;-85
2022/05/04 03:57:50;;;;;;;3.95;3.00;;;;;;;21.06;52.08;99482.69;4957542;28;20031;-83
2022/05/04 04:00:16;;;;;;;4.15;2.97;;;;;;;21.06;52.34;99487.97;4958940;29;20377;-85
2022/05/04 04:02:42;;;;;;;4.32;3.05;;;;;;;21.06;52.28;99482.69;4958730;29;20122;-85
2022/05/04 04:05:09;;;;;;;4.22;2.90;;;;;;;21.05;52.21;99491.59;4961184;29;20055;-85
2022/05/04 04:07:34;;;;;;;4.18;3.13;;;;;;;21.04;52.27;99495.19;4959892;29;20460;-86
2022/05/04 04:10:00;;;;;;;4.05;3.08;;;;;;;21.02;52.27;99492.63;4960008;29;20027;-84
2022/05/04 04:12:26;;;;;;;4.00;3.03;;;;;;;21.02;52.15;99492.63;4960580;29;20149;-86
2022/05/04 04:14:51;;;;;;;4.85;3.28;;;;;;;21.04;52.40;99490.75;4961536;29;20066;-84
2022/05/04 04:17:17;;;;;;;4.45;3.30;;;;;;;21.03;52.12;99493.50;4961767;29;20035;-84
2022/05/04 04:19:42;;;;;;;4.70;3.25;;;;;;;21.03;52.30;99496.16;4960281;29;20369;-83
2022/05/04 04:22:08;;;;;;;4.38;3.28;;;;;;;21.02;52.09;99491.78;4961455;29;20038;-84
2022/05/04 04:24:33;;;;;;;3.83;2.90;;;;;;;21.00;52.10;99493.66;4960685;29;20034;-85
2022/05/04 04:26:59;;;;;;;4.05;2.92;;;;;;;21.03;52.13;99493.50;4961246;29;20413;-85
2022/05/04 04:29:25;;;;;;;4.47;3.10;;;;;;;21.00;52.20;99483.91;4961032;29;20453;-85
2022/05/04 04:31:50;;;;;;;5.28;2.88;;;;;;;21.00;52.28;99496.31;4961011;29;20031;-85
2022/05/04 04:34:16;;;;;;;4.70;3.65;;;;;;;21.00;52.29;99493.66;4960150;29;20446;-85
2022/05/04 04:36:43;;;;;;;4.32;3.63;;;;;;;20.99;52.31;99486.66;4960446;29;20031;-85
2022/05/04 04:39:09;;;;;;;4.15;3.10;;;;;;;20.98;52.16;99487.59;4963170;29;20035;-86
2022/05/04 04:41:34;;;;;;;4.13;3.30;;;;;;;21.00;52.16;99483.06;4962567;29;20122;-86
2022/05/04 04:44:00;;;;;;;4.78;3.70;;;;;;;20.97;52.30;99485.91;4962856;29;20089;-85
2022/05/04 04:46:26;;;;;;;4.05;3.30;;;;;;;20.97;52.46;99483.25;4962084;29;20094;-87
2022/05/04 04:48:51;;;;;;;4.78;3.20;;;;;;;20.96;52.18;99485.03;4964773;29;20031;-87
2022/05/04 04:51:17;;;;;;;5.22;3.95;;;;;;;20.96;52.34;99486.84;4963628;29;20039;-87
2022/05/04 04:53:42;;;;;;;5.13;3.90;;;;;;;20.93;52.22;99488.72;4964163;29;20038;-86
2022/05/04 04:56:08;;;;;;;4.70;3.70;;;;;;;20.93;52.22;99493.19;4964764;29;20035;-86
2022/05/04 04:58:33;;;;;;;4.78;3.50;;;;;;;20.93;52.16;99496.69;4964076;29;20031;-87
2022/05/04 05:00:59;;;;;;;4.93;3.80;;;;;;;20.92;52.21;99497.63;4964418;29;20041;-87
2022/05/04 05:03:25;;;;;;;5.03;3.90;;;;;;;20.91;52.21;99495.94;4963992;29;20067;-87
2022/05/04 05:05:50;;;;;;;5.20;4.25;;;;;;;20.92;52.22;99496.81;4963550;29;20462;-85
2022/05/04 05:08:16;;;;;;;5.97;4.32;;;;;;;20.91;52.35;99498.59;4963163;28;20027;-86
2022/05/04 05:10:42;;;;;;;5.03;4.10;;;;;;;20.90;52.21;99499.53;4963428;29;20035;-85
2022/05/04 05:13:08;;;;;;;5.68;3.75;;;;;;;20.91;52.34;99500.38;4957473;29;20050;-85
2022/05/04 05:18:20;;;;;;;;;;;;;;;20.91;52.22;99509.19;4959640;29;20090;-84
2022/05/04 05:20:46;;;;;;;5.00;4.17;;;;;;;20.89;52.33;99511.09;4960539;29;20374;-85
2022/05/04 05:23:12;;;;;;;5.75;4.70;;;;;;;20.89;52.26;99519.06;4959046;29;20035;-84
2022/05/04 05:25:37;;;;;;;5.68;4.10;;;;;;;20.88;52.34;99516.50;4959350;29;20038;-85
2022/05/04 05:28:03;;;;;;;6.65;4.63;;;;;;;20.89;52.24;99524.38;4957966;29;20094;-85
2022/05/04 05:30:28;;;;;;;5.43;4.38;;;;;;;20.87;52.47;99520.94;4958847;29;20041;-84
2022/05/04 05:32:54;;;;;;;6.03;4.82;;;;;;;20.87;52.34;99520.94;4957943;29;20035;-85
2022/05/04 05:35:20;;;;;;;5.43;4.22;;;;;;;20.87;52.25;99528.88;4958748;29;20027;-85
2022/05/04 05:37:46;;;;;;;5.70;4.28;;;;;;;20.86;52.35;99529.84;4958597;29;20476;-86
2022/05/04 05:40:14;;;;;;;5.15;4.50;;;;;;;20.87;52.27;99531.53;4960010;29;20023;-85
2022/05/04 05:42:40;;;;;;;5.72;4.97;;;;;;;20.86;52.37;99540.44;4958216;29;20039;-86
2022/05/04 05:45:06;;;;;;;6.22;4.70;;;;;;;20.86;52.19;99532.50;4958666;29;20115;-85
2022/05/04 05:47:35;;;;;;;5.65;4.40;;;;;;;20.85;52.32;99538.75;4958305;29;20034;-85
2022/05/04 05:50:00;;;;;;;5.25;4.40;;;;;;;20.83;52.19;99540.59;4961021;29;20038;-84
2022/05/04 05:52:26;;;;;;;5.60;4.43;;;;;;;20.85;52.13;99538.75;4960293;29;20030;-85
2022/05/04 05:54:52;;;;;;;5.80;4.72;;;;;;;20.84;52.34;99536.13;4959109;29;20031;-84
2022/05/04 05:57:17;;;;;;;5.70;4.78;;;;;;;20.84;52.33;99547.63;4959011;29;20445;-85
2022/05/04 05:59:43;;;;;;;5.03;4.28;;;;;;;20.83;52.35;99555.66;4959146;29;20566;-83
2022/05/04 06:02:08;;;;;;;5.50;4.68;;;;;;;20.84;52.38;99558.22;4959358;29;20027;-86
2022/05/04 06:04:34;;;;;;;6.45;5.00;;;;;;;20.82;52.31;99565.41;4958596;29;20433;-85
2022/05/04 06:06:59;;;;;;;6.20;5.32;;;;;;;20.82;52.38;99560.09;4958674;29;20071;-84
2022/05/04 06:09:25;;;;;;;5.70;4.53;;;;;;;20.81;52.35;99558.38;4958740;29;20062;-85
2022/05/04 06:11:52;;;;;;;5.43;4.72;;;;;;;20.83;52.23;99566.25;4959896;29;20031;-85
2022/05/04 06:14:18;;;;;;;6.10;5.20;;;;;;;20.81;52.36;99565.50;4958143;28;20023;-85
2022/05/04 06:16:44;;;;;;;6.28;5.05;;;;;;;20.81;52.45;99562.84;4959080;29;20369;-84
2022/05/04 06:19:10;;;;;;;5.93;5.15;;;;;;;20.79;52.19;99565.59;4959099;28;20028;-85
2022/05/04 06:21:36;;;;;;;5.63;4.65;;;;;;;20.78;52.44;99562.06;4961583;29;20038;-84
2022/05/04 06:24:02;;;;;;;6.32;5.20;;;;;;;20.80;52.29;99572.59;4965365;29;20027;-86
2022/05/04 06:26:27;;;;;;;5.53;4.72;;;;;;;20.81;52.37;99571.66;4962865;29;20104;-85
2022/05/04 06:28:53;;;;;;;7.00;5.00;;;;;;;20.79;52.58;99577.03;4963569;29;20094;-85
2022/05/04 06:34:07;;;;;;;5.93;5.33;;;;;;;20.78;52.27;99574.50;4955756;29;20046;-85
2022/05/04 06:36:34;;;;;;;6.30;5.10;;;;;;;20.77;52.29;99578.94;4961801;29;20031;-86
2022/05/04 06:39:00;;;;;;;6.03;5.07;;;;;;;20.78;52.34;99582.44;4959409;29;20041;-86
2022/05/04 06:41:27;;;;;;;7.43;5.55;;;;;;;20.77;52.46;99588.69;4959976;29;20041;-85
2022/05/04 06:43:53;;;;;;;6.75;5.43;;;;;;;20.77;52.24;99583.38;4960503;29;20051;-85
2022/05/04 06:46:18;;;;;;;5.75;4.78;;;;;;;20.75;52.41;99591.44;4961387;29;20381;-84
2022/05/04 06:48:45;;;;;;;7.47;5.45;;;;;;;20.77;52.28;99593.97;4960217;29;20049;-85
2022/05/04 06:51:11;;;;;;;7.25;5.18;;;;;;;20.76;52.44;99593.16;4960105;29;20023;-85
2022/05/04 06:53:36;;;;;;;6.65;5.22;;;;;;;20.75;52.39;99595.88;4960909;29;20037;-85
2022/05/04 06:56:02;;;;;;;6.93;5.32;;;;;;;20.76;52.28;99592.28;4961582;29;20381;-84
2022/05/04 06:58:28;;;;;;;5.70;5.10;;;;;;;20.74;52.27;99589.72;4966509;29;20058;-86
2022/05/04 07:00:53;;;;;;;6.53;5.10;;;;;;;20.76;52.27;99605.53;4964929;29;20403;-87
2022/05/04 07:03:21;;;;;;;6.40;4.95;;;;;;;20.73;52.29;99587.16;4965263;29;20122;-85
2022/05/04 07:05:47;;;;;;;5.45;4.90;;;;;;;20.74;52.35;99596.81;4965018;29;20417;-86
2022/05/04 07:08:13;;;;;;;6.28;5.53;;;;;;;20.73;52.59;99588.00;4964743;29;20373;-88
2022/05/04 07:10:40;;;;;;;6.18;5.13;;;;;;;20.75;52.33;99587.91;4965213;29;20031;-86
2022/05/04 07:13:06;;;;;;;6.53;5.70;;;;;;;20.73;52.39;99593.31;4964307;29;20524;-85
2022/05/04 07:15:32;;;;;;;5.65;4.97;;;;;;;20.73;52.50;99592.47;4965753;29;20023;-86
2022/05/04 07:17:58;;;;;;;6.13;5.10;;;;;;;20.73;52.54;99603.06;4964906;29;20094;-85
2022/05/04 07:20:24;;;;;;;6.07;5.07;;;;;;;20.71;52.38;99594.34;4964182;29;20377;-87
2022/05/04 07:22:50;;;;;;;6.60;5.40;;;;;;;20.72;52.46;99596.06;4963961;29;20023;-86
2022/05/04 07:25:15;;;;;;;6.90;5.78;;;;;;;20.72;52.33;99606.69;4964131;29;20046;-85
2022/05/04 07:27:41;;;;;;;7.97;5.72;;;;;;;20.71;52.56;99599.63;4963450;29;20186;-86
2022/05/04 07:30:07;;;;;;;8.13;5.25;;;;;;;20.71;52.16;99600.50;4964576;29;20368;-87
2022/05/04 07:32:33;;;;;;;6.22;5.20;;;;;;;20.72;52.35;99601.38;4966428;28;20042;-87
2022/05/04 07:34:59;;;;;;;6.22;5.10;;;;;;;20.71;52.29;99604.94;4968498;29;20027;-85
2022/05/04 07:37:25;;;;;;;6.20;5.38;;;;;;;20.71;52.51;99604.94;4963190;29;20038;-85
2022/05/04 07:42:35;;;;;;;7.43;5.85;;;;;;;20.70;52.58;99603.25;4961771;29;20106;-85
2022/05/04 07:45:07;;;;;;;6.85;5.45;;;;;;;20.68;52.57;99599.84;4960870;29;20035;-86
2022/05/04 07:47:35;;;;;;;6.47;5.00;;;;;;;20.71;52.37;99607.59;4962209;29;20031;-85
2022/05/04 07:50:03;;;;;;;6.70;5.47;;;;;;;20.68;52.56;99611.28;4962063;29;20055;-84
2022/05/04 07:52:28;;;;;;;6.30;5.50;;;;;;;20.68;52.42;99615.75;4961919;29;20039;-84
2022/05/04 07:54:54;;;;;;;6.25;5.57;;;;;;;20.66;52.33;99619.34;4961752;29;20053;-84
2022/05/04 07:57:20;;;;;;;6.07;5.47;;;;;;;20.67;52.13;99620.19;4961829;29;20073;-85
2022/05/04 08:05:15;;;;;;;6.60;5.30;;;;;;;20.68;52.38;99631.66;4960037;29;20070;-85
2022/05/04 08:07:41;;;;;;;5.68;4.85;;;;;;;20.66;52.64;99631.72;4960011;29;20031;-85
2022/05/04 08:10:07;;;;;;;6.38;5.10;;;;;;;20.66;52.40;99637.91;4958457;29;20031;-85
2022/05/04 08:12:33;;;;;;;7.28;5.63;;;;;;;20.66;52.58;99642.34;4960037;29;20027;-85
2022/05/04 08:14:59;;;;;;;7.40;6.07;;;;;;;20.65;52.55;99644.16;4960498;29;20101;-84
2022/05/04 08:17:25;;;;;;;6.93;5.65;;;;;;;20.66;52.55;99650.28;4960875;29;20027;-87
2022/05/04 08:19:51;;;;;;;6.68;5.47;;;;;;;20.65;52.38;99649.47;4960834;29;20030;-84
2022/05/04 08:22:17;;;;;;;6.47;5.80;;;;;;;20.65;52.39;99657.41;4959572;29;20090;-84
2022/05/04 08:24:42;;;;;;;5.88;5.10;;;;;;;20.64;52.53;99650.38;4959554;29;20110;-85
2022/05/04 08:27:08;;;;;;;6.47;5.78;;;;;;;20.65;52.41;99644.16;4959823;29;20035;-85
2022/05/04 08:29:33;;;;;;;6.70;5.20;;;;;;;20.64;52.49;99653.03;4961030;29;20042;-85
2022/05/04 08:31:59;;;;;;;6.32;5.55;;;;;;;20.66;52.54;99650.28;4960988;29;20039;-84
2022/05/04 08:34:25;;;;;;;7.57;5.68;;;;;;;20.66;52.52;99651.16;4961684;29;20046;-86
2022/05/04 08:36:51;;;;;;;6.18;5.57;;;;;;;20.66;52.32;99656.47;4960796;29;20038;-86
2022/05/04 08:39:16;;;;;;;5.95;5.15;;;;;;;20.65;52.29;99660.06;4960516;29;20034;-84
2022/05/04 08:41:43;;;;;;;7.28;5.63;;;;;;;20.65;52.47;99662.72;4961919;29;20477;-86
2022/05/04 08:44:13;;;;;;;7.63;5.88;;;;;;;20.64;52.49;99658.31;4959971;28;20202;-84
2022/05/04 08:46:42;;;;;;;7.00;5.65;;;;;;;20.62;52.32;99660.22;4962292;29;20023;-84
2022/05/04 08:49:10;;;;;;;6.35;5.43;;;;;;;20.63;52.40;99667.22;4961384;29;20110;-86
2022/05/04 08:51:36;;;;;;;7.68;5.15;;;;;;;20.63;52.34;99664.56;4961326;29;20019;-84
2022/05/04 08:54:04;;;;;;;5.70;4.68;;;;;;;20.64;52.52;99673.41;4961298;29;20026;-84
2022/05/04 08:56:30;;;;;;;6.55;5.35;;;;;;;20.62;52.22;99670.81;4961697;29;20038;-83
2022/05/04 08:58:56;;;;;;;6.45;5.40;;;;;;;20.62;52.46;99670.81;4961109;29;20058;-83
2022/05/04 09:01:24;;;;;;;6.95;5.88;;;;;;;20.62;52.47;99660.22;4962200;29;20446;-87
2022/05/04 09:03:49;;;;;;;6.63;5.60;;;;;;;20.62;52.57;99665.53;4960623;29;20174;-84
2022/05/04 09:06:42;;;;;;;7.15;6.20;;;;;;;20.63;52.35;99669.88;4960384;29;20062;-84
2022/05/04 09:09:10;;;;;;;7.13;6.05;;;;;;;20.64;52.46;99663.63;4960585;29;20049;-85
2022/05/04 09:11:44;;;;;;;6.30;5.65;;;;;;;20.63;52.33;99664.56;4961524;29;20473;-84
2022/05/04 09:14:17;;;;;;;5.70;5.10;;;;;;;20.62;52.48;99668.16;4960187;29;20106;-85
2022/05/04 09:16:43;;;;;;;6.07;5.22;;;;;;;20.63;52.56;99661.91;4962694;29;20472;-85
2022/05/04 09:19:13;;;;;;;6.20;5.53;;;;;;;20.62;52.46;99660.22;4962683;29;20031;-87
2022/05/04 09:21:40;;;;;;;6.20;5.60;;;;;;;20.63;52.38;99651.31;4962245;29;20389;-85
2022/05/04 09:24:06;;;;;;;6.78;5.53;;;;;;;20.62;52.39;99654.91;4962544;29;20034;-85
2022/05/04 09:26:37;;;;;;;6.22;5.63;;;;;;;20.63;52.28;99653.97;4962998;29;20094;-85
2022/05/04 09:29:06;;;;;;;6.28;5.53;;;;;;;20.63;52.16;99653.97;4962797;29;20062;-86
2022/05/04 09:31:32;;;;;;;7.93;5.97;;;;;;;20.65;52.46;99660.06;4963355;29;20074;-86
2022/05/04 09:34:00;;;;;;;6.82;5.40;;;;;;;20.64;52.27;99657.50;4957120;28;20023;-86
2022/05/04 09:45:34;;;;;;;7.05;6.03;;;;;;;20.65;52.40;99660.06;4965508;29;20385;-85
2022/05/04 09:47:59;;;;;;;6.88;5.60;;;;;;;20.65;52.14;99670.66;4963446;29;20047;-85
2022/05/04 09:50:26;;;;;;;6.70;5.78;;;;;;;20.65;52.35;99668.00;4966160;29;20108;-87
2022/05/04 09:52:53;;;;;;;7.07;5.72;;;;;;;20.64;52.35;99668.09;4967123;29;20034;-87
2022/05/04 09:55:24;;;;;;;6.93;5.80;;;;;;;20.64;52.40;99668.94;4966341;29;20110;-87
2022/05/04 09:57:51;;;;;;;7.28;6.30;;;;;;;20.63;52.59;99672.53;4966681;29;20031;-87
2022/05/04 10:00:21;;;;;;;6.25;5.65;;;;;;;20.64;52.40;99668.94;4983131;28;20057;-87
2022/05/04 10:02:52;;;;;;;6.57;5.80;;;;;;;20.63;52.38;99675.19;4966341;29;20181;-88
2022/05/04 10:05:22;;;;;;;7.40;5.90;;;;;;;20.63;52.56;99672.53;4963178;29;20054;-85
2022/05/04 10:07:50;;;;;;;6.82;5.68;;;;;;;20.63;52.35;99677.81;4958760;28;20027;-85
2022/05/04 10:10:18;;;;;;;7.32;5.78;;;;;;;20.64;52.46;99678.69;4958873;29;20028;-85
2022/05/04 10:12:45;;;;;;;6.88;5.88;;;;;;;20.65;52.35;99681.28;4959564;29;20027;-85
2022/05/04 10:15:13;;;;;;;7.38;6.40;;;;;;;20.65;52.47;99691.00;4959116;29;20376;-85
2022/05/04 10:17:48;;;;;;;6.95;6.20;;;;;;;20.64;52.33;99684.00;4958420;29;20402;-85
2022/05/04 10:20:20;;;;;;;6.68;5.97;;;;;;;20.62;52.46;99681.44;4957902;29;20042;-86
2022/05/04 10:23:01;;;;;;;7.38;5.80;;;;;;;20.63;52.39;99683.13;4957656;29;20031;-85
2022/05/04 10:25:31;;;;;;;7.63;6.15;;;;;;;20.65;52.44;99688.34;4960285;29;20046;-84
2022/05/04 10:28:07;;;;;;;6.38;5.53;;;;;;;20.66;52.28;99685.63;4960560;29;20091;-85
2022/05/04 10:30:36;;;;;;;6.82;5.72;;;;;;;20.62;52.55;99686.72;4959902;29;20097;-85
2022/05/04 10:33:08;;;;;;;8.68;6.03;;;;;;;20.64;52.22;99684.84;4960757;29;20027;-83
2022/05/04 10:35:41;;;;;;;7.47;5.90;;;;;;;20.64;52.33;99682.19;4961073;29;20127;-85
2022/05/04 10:38:13;;;;;;;7.43;6.63;;;;;;;20.64;52.41;99684.00;4960572;29;20027;-85
2022/05/04 10:41:09;;;;;;;6.95;6.03;;;;;;;20.66;52.54;99682.97;4959968;29;20031;-85
2022/05/04 10:43:47;;;;;;;7.88;6.82;;;;;;;20.68;52.38;99689.97;4952731;29;20047;-88
2022/05/04 10:46:22;;;;;;;8.43;6.07;;;;;;;20.66;52.30;99682.97;4958843;29;20079;-86
2022/05/04 10:48:54;;;;;;;6.85;6.07;;;;;;;20.70;52.44;99680.13;4958574;29;20035;-86
2022/05/04 10:51:21;;;;;;;7.47;6.63;;;;;;;20.70;52.36;99685.44;4958522;29;20057;-85
2022/05/04 10:54:13;;;;;;;9.27;6.82;;;;;;;20.72;52.49;99691.53;4958354;29;20047;-85
2022/05/04 10:56:43;;;;;;;9.18;7.28;;;;;;;20.73;52.21;99687.94;4954725;29;20062;-86
2022/05/04 10:59:11;;;;;;;7.95;7.15;;;;;;;20.74;52.21;99681.69;4957432;29;20089;-87
2022/05/04 11:01:39;;;;;;;8.07;6.45;;;;;;;20.77;52.11;99686.78;4955834;29;20027;-87
2022/05/04 11:04:19;;;;;;;7.47;6.38;;;;;;;20.78;52.13;99686.72;4955222;29;20031;-87
2022/05/04 11:06:58;;;;;;;8.10;6.65;;;;;;;20.76;52.07;99688.59;4956824;28;20066;-87
2022/05/04 11:09:31;;;;;;;8.73;6.60;;;;;;;20.80;51.98;99678.69;4959136;29;20038;-85
2022/05/04 11:11:58;;;;;;;7.85;6.57;;;;;;;20.80;52.03;99678.69;4959633;29;20429;-85
2022/05/04 11:14:24;;;;;;;8.43;6.57;;;;;;;20.80;52.12;99676.03;4961242;29;20050;-86
2022/05/04 11:16:52;;;;;;;7.20;5.93;;;;;;;20.84;52.02;99674.06;4960260;29;20023;-87
2022/05/04 11:19:18;;;;;;;7.45;6.75;;;;;;;20.85;51.69;99668.69;4960289;28;20093;-86
2022/05/04 11:21:44;;;;;;;7.40;6.25;;;;;;;20.87;51.90;99674.75;4960117;29;20027;-85
2022/05/04 11:24:12;;;;;;;7.88;6.47;;;;;;;20.88;52.03;99665.84;4961251;29;20038;-86
2022/05/04 11:26:39;;;;;;;7.80;6.43;;;;;;;20.87;51.88;99658.84;4960844;29;20126;-86
2022/05/04 11:29:12;;;;;;;8.93;6.97;;;;;;;20.85;51.82;99666.03;4959869;29;20338;-85
2022/05/04 11:31:47;;;;;;;8.43;6.60;;;;;;;20.86;52.05;99662.44;4960612;29;20046;-85
2022/05/04 11:34:18;;;;;;;8.60;6.95;;;;;;;20.87;51.73;99653.53;4962973;29;20070;-87
2022/05/04 11:36:46;;;;;;;9.18;6.63;;;;;;;20.88;51.84;99651.75;4962784;29;20038;-87
2022/05/04 11:39:30;;;;;;;7.70;6.70;;;;;;;20.87;51.85;99648.25;4963076;29;20027;-87
2022/05/04 11:42:01;;;;;;;8.05;6.75;;;;;;;20.87;52.00;99648.25;4963882;29;20019;-86
2022/05/04 11:44:28;;;;;;;8.55;6.72;;;;;;;20.87;52.04;99648.25;4963184;29;20071;-86
2022/05/04 11:46:55;;;;;;;7.72;6.40;;;;;;;20.89;51.88;99649.03;4962618;29;20036;-86
2022/05/04 11:49:23;;;;;;;8.02;6.65;;;;;;;20.89;51.99;99640.19;4962445;29;20126;-87
2022/05/04 11:51:49;;;;;;;8.70;6.97;;;;;;;20.88;51.95;99639.34;4962977;29;20409;-86
2022/05/04 11:54:16;;;;;;;8.20;6.30;;;;;;;20.90;51.97;99641.91;4964785;29;20106;-86
2022/05/04 11:56:41;;;;;;;9.35;7.45;;;;;;;20.91;52.09;99643.59;4963610;29;20069;-85
2022/05/04 11:59:07;;;;;;;7.72;6.43;;;;;;;20.92;51.89;99640.88;4963885;29;20369;-86
2022/05/04 12:01:33;;;;;;;8.00;6.90;;;;;;;20.93;51.95;99647.88;4963776;29;20027;-87
2022/05/04 12:04:00;;;;;;;7.85;7.05;;;;;;;20.95;51.88;99641.63;4964404;29;20027;-87
2022/05/04 12:06:26;;;;;;;6.65;6.05;;;;;;;20.93;52.10;99637.28;4965363;29;20058;-87
2022/05/04 12:08:54;;;;;;;9.20;6.97;;;;;;;20.93;52.02;99637.28;4968242;29;20442;-86